createdAt,value
2023-01-30T00:01:04.921Z,93.10
2023-01-30T00:03:31.790Z,93.00
2023-01-30T00:05:58.681Z,93.10
2023-01-30T00:08:25.480Z,93.10
2023-01-30T00:10:52.248Z,93.10
2023-01-30T00:13:19.009Z,93.10
2023-01-30T00:15:45.862Z,93.10
2023-01-30T00:18:12.650Z,93.10
2023-01-30T00:20:39.457Z,93.20
2023-01-30T00:23:06.322Z,93.20
2023-01-30T00:25:34.231Z,93.20
2023-01-30T00:28:01.581Z,93.20
2023-01-30T00:30:29.578Z,93.20
2023-01-30T00:32:57.925Z,93.20
2023-01-30T00:35:28.530Z,93.20
2023-01-30T00:37:59.511Z,93.20
2023-01-30T00:40:27.112Z,93.30
2023-01-30T00:46:03.193Z,93.30
2023-01-30T00:48:30.258Z,93.30
2023-01-30T00:50:57.130Z,93.30
2023-01-30T00:53:23.996Z,93.20
2023-01-30T00:55:54.164Z,93.20
2023-01-30T00:58:21.467Z,93.20
2023-01-30T01:00:48.350Z,93.20
2023-01-30T01:03:15.182Z,93.30
2023-01-30T01:05:42.696Z,93.30
2023-01-30T01:08:09.982Z,93.30
2023-01-30T01:10:36.878Z,93.30
2023-01-30T01:13:03.873Z,93.30
2023-01-30T01:15:31.026Z,93.30
2023-01-30T01:17:57.797Z,93.30
2023-01-30T01:20:26.255Z,93.20
2023-01-30T01:22:54.178Z,93.20
2023-01-30T01:25:21.340Z,93.20
2023-01-30T01:27:48.343Z,93.20
2023-01-30T01:30:16.956Z,93.50
2023-01-30T01:32:44.386Z,93.40
2023-01-30T01:35:11.235Z,93.40
2023-01-30T01:37:38.173Z,93.40
2023-01-30T01:40:24.350Z,93.30
2023-01-30T01:42:51.128Z,93.30
2023-01-30T01:45:24.558Z,93.30
2023-01-30T01:48:11.698Z,93.20
2023-01-30T01:50:49.533Z,93.20
2023-01-30T01:53:17.787Z,93.20
2023-01-30T01:55:45.059Z,93.20
2023-01-30T01:58:14.794Z,93.20
2023-01-30T02:00:41.590Z,93.10
2023-01-30T02:03:11.079Z,93.10
2023-01-30T02:05:40.858Z,93.20
2023-01-30T02:09:00.059Z,93.20
2023-01-30T02:11:29.526Z,93.30
2023-01-30T02:13:56.679Z,93.30
2023-01-30T02:16:23.853Z,93.20
2023-01-30T02:18:50.687Z,93.30
2023-01-30T02:21:52.626Z,93.30
2023-01-30T02:24:31.378Z,93.40
2023-01-30T02:27:14.979Z,93.40
2023-01-30T02:29:44.741Z,93.40
2023-01-30T02:32:31.545Z,93.40
2023-01-30T02:35:19.113Z,93.50
2023-01-30T02:37:55.187Z,93.40
2023-01-30T02:40:50.940Z,93.40
2023-01-30T02:43:35.325Z,93.50
2023-01-30T02:46:16.189Z,93.50
2023-01-30T02:48:57.432Z,93.50
2023-01-30T02:51:30.641Z,93.60
2023-01-30T02:53:57.589Z,93.50
2023-01-30T02:56:24.404Z,93.60
2023-01-30T02:59:02.539Z,93.80
2023-01-30T03:01:39.265Z,93.50
2023-01-30T03:04:11.759Z,93.50
2023-01-30T03:06:55.405Z,93.50
2023-01-30T03:09:23.689Z,93.50
2023-01-30T03:12:18.193Z,93.40
2023-01-30T03:15:18.047Z,93.40
2023-01-30T03:17:46.362Z,93.40
2023-01-30T03:20:16.318Z,93.60
2023-01-30T03:22:43.143Z,93.30
2023-01-30T03:25:11.123Z,93.40
2023-01-30T03:27:37.960Z,93.40
2023-01-30T03:30:06.902Z,93.40
2023-01-30T03:32:33.728Z,93.40
2023-01-30T03:35:00.875Z,93.40
2023-01-30T03:37:27.760Z,93.70
2023-01-30T03:39:54.657Z,93.50
2023-01-30T03:42:21.700Z,93.60
2023-01-30T03:44:48.512Z,93.60
2023-01-30T03:47:15.339Z,93.90
2023-01-30T03:49:42.315Z,93.70
2023-01-30T03:52:09.150Z,93.70
2023-01-30T03:54:35.943Z,94.00
2023-01-30T03:57:03.757Z,93.80
2023-01-30T03:59:31.561Z,93.80
2023-01-30T04:02:05.102Z,93.90
2023-01-30T04:04:32.675Z,93.90
2023-01-30T04:07:03.844Z,93.80
2023-01-30T04:09:31.844Z,94.00
2023-01-30T04:11:58.921Z,93.90
2023-01-30T04:14:29.631Z,93.90
2023-01-30T04:17:22.667Z,93.90
2023-01-30T04:20:12.157Z,94.10
2023-01-30T04:22:44.867Z,93.90
2023-01-30T04:25:11.753Z,94.00
2023-01-30T04:27:38.866Z,94.00
2023-01-30T04:30:15.046Z,94.00
2023-01-30T04:32:42.715Z,94.00
2023-01-30T04:35:10.992Z,94.10
2023-01-30T04:37:38.803Z,94.10
2023-01-30T04:40:07.064Z,94.20
2023-01-30T04:42:35.191Z,94.20
2023-01-30T04:45:21.983Z,94.30
2023-01-30T04:47:50.576Z,94.30
2023-01-30T04:50:17.732Z,94.30
2023-01-30T04:52:44.520Z,94.30
2023-01-30T04:55:12.239Z,94.40
2023-01-30T04:57:39.110Z,94.40
2023-01-30T05:00:07.012Z,94.50
2023-01-30T05:02:36.468Z,94.60
2023-01-30T05:05:03.249Z,94.80
2023-01-30T05:07:30.061Z,94.60
2023-01-30T05:09:58.050Z,94.50
2023-01-30T05:12:24.887Z,94.60
2023-01-30T05:14:51.666Z,94.60
2023-01-30T05:17:18.825Z,94.60
2023-01-30T05:19:45.642Z,94.60
2023-01-30T05:22:12.506Z,94.60
2023-01-30T05:24:39.258Z,94.60
2023-01-30T05:27:06.076Z,94.60
2023-01-30T05:29:32.909Z,94.90
2023-01-30T05:31:59.687Z,94.80
2023-01-30T05:34:26.522Z,94.80
2023-01-30T05:36:53.318Z,94.80
2023-01-30T05:39:20.104Z,94.90
2023-01-30T05:41:46.889Z,94.90
2023-01-30T05:44:13.703Z,94.90
2023-01-30T05:46:40.620Z,94.90
2023-01-30T05:49:07.550Z,94.90
2023-01-30T05:51:34.359Z,94.90
2023-01-30T05:54:01.100Z,95.20
2023-01-30T05:56:33.104Z,94.90
2023-01-30T05:59:03.162Z,94.90
2023-01-30T06:01:30.183Z,94.90
2023-01-30T06:03:58.382Z,95.10
2023-01-30T06:06:25.290Z,94.90
2023-01-30T06:08:55.768Z,94.90
2023-01-30T06:11:22.768Z,94.80
2023-01-30T06:13:49.639Z,94.80
2023-01-30T06:16:17.044Z,94.80
2023-01-30T06:18:44.003Z,94.80
2023-01-30T06:21:10.858Z,94.70
2023-01-30T06:23:38.848Z,94.60
2023-01-30T06:26:08.120Z,94.50
2023-01-30T06:28:36.460Z,94.40
2023-01-30T06:31:03.457Z,94.30
2023-01-30T06:33:30.353Z,94.30
2023-01-30T06:35:57.178Z,94.30
2023-01-30T06:38:25.613Z,94.30
2023-01-30T06:40:52.924Z,94.30
2023-01-30T06:43:20.760Z,94.20
2023-01-30T06:45:47.587Z,94.10
2023-01-30T06:48:14.496Z,94.10
2023-01-30T06:50:41.308Z,94.10
2023-01-30T06:53:08.423Z,94.10
2023-01-30T06:55:35.718Z,94.00
2023-01-30T06:58:08.193Z,94.00
2023-01-30T07:00:35.660Z,94.00
2023-01-30T07:03:03.524Z,94.00
2023-01-30T07:05:30.386Z,94.00
2023-01-30T07:07:57.198Z,94.10
2023-01-30T07:10:26.125Z,94.20
2023-01-30T07:12:53.568Z,94.20
2023-01-30T07:15:20.645Z,94.10
2023-01-30T07:17:47.651Z,94.00
2023-01-30T07:20:14.556Z,93.90
2023-01-30T07:22:41.442Z,93.80
2023-01-30T07:25:08.504Z,93.80
2023-01-30T07:27:35.349Z,93.80
2023-01-30T07:30:02.230Z,93.70
2023-01-30T07:32:29.483Z,93.70
2023-01-30T07:34:56.358Z,93.70
2023-01-30T07:37:23.107Z,93.90
2023-01-30T07:39:58.516Z,93.60
2023-01-30T07:42:25.366Z,93.50
2023-01-30T07:44:53.372Z,93.50
2023-01-30T07:47:21.172Z,93.60
2023-01-30T07:49:48.034Z,93.60
2023-01-30T07:52:14.935Z,93.60
2023-01-30T07:54:43.079Z,93.30
2023-01-30T07:57:09.865Z,93.40
2023-01-30T07:59:36.736Z,92.90
2023-01-30T08:02:03.588Z,92.70
2023-01-30T08:04:30.395Z,92.60
2023-01-30T08:06:57.361Z,92.60
2023-01-30T08:09:24.131Z,92.40
2023-01-30T08:11:50.907Z,92.30
2023-01-30T08:14:17.647Z,92.00
2023-01-30T08:16:44.564Z,91.50
2023-01-30T08:19:11.374Z,91.10
2023-01-30T08:21:38.239Z,90.80
2023-01-30T08:24:05.445Z,90.50
2023-01-30T08:26:32.369Z,90.30
2023-01-30T08:28:59.191Z,90.20
2023-01-30T08:31:26.282Z,90.00
2023-01-30T08:33:53.064Z,89.80
2023-01-30T08:36:20.125Z,89.60
2023-01-30T08:38:46.864Z,89.90
2023-01-30T08:41:13.668Z,89.10
2023-01-30T08:43:40.475Z,88.70
2023-01-30T08:46:07.334Z,88.40
2023-01-30T08:48:47.685Z,88.30
2023-01-30T08:51:15.580Z,88.20
2023-01-30T08:53:42.380Z,87.90
2023-01-30T08:56:09.185Z,87.60
2023-01-30T08:58:36.061Z,87.30
2023-01-30T09:01:06.902Z,87.10
2023-01-30T09:03:33.695Z,86.80
2023-01-30T09:06:00.454Z,86.60
2023-01-30T09:08:27.477Z,86.30
2023-01-30T09:11:01.087Z,86.00
2023-01-30T09:13:28.271Z,86.00
2023-01-30T09:15:54.995Z,86.10
2023-01-30T09:18:21.778Z,85.90
2023-01-30T09:20:48.787Z,85.50
2023-01-30T09:23:15.608Z,85.20
2023-01-30T09:25:45.353Z,85.20
2023-01-30T09:28:12.248Z,84.90
2023-01-30T09:30:39.105Z,84.70
2023-01-30T09:33:05.906Z,84.60
2023-01-30T09:35:32.681Z,84.40
2023-01-30T09:38:00.449Z,84.30
2023-01-30T09:40:28.394Z,84.10
2023-01-30T09:43:17.894Z,83.90
2023-01-30T09:45:45.507Z,83.90
2023-01-30T09:48:30.247Z,83.90
2023-01-30T09:51:15.908Z,83.60
2023-01-30T09:54:01.310Z,83.50
2023-01-30T09:56:28.127Z,83.10
2023-01-30T09:58:57.182Z,83.40
2023-01-30T10:01:29.383Z,83.30
2023-01-30T10:04:09.212Z,83.10
2023-01-30T10:06:39.147Z,82.90
2023-01-30T10:09:24.564Z,83.10
2023-01-30T10:11:56.175Z,82.60
2023-01-30T10:14:31.889Z,82.50
2023-01-30T10:17:03.323Z,82.40
2023-01-30T10:19:51.245Z,82.40
2023-01-30T10:22:49.107Z,82.30
2023-01-30T10:25:30.995Z,82.00
2023-01-30T10:28:12.344Z,82.00
2023-01-30T10:30:39.398Z,81.70
2023-01-30T10:33:22.926Z,81.70
2023-01-30T10:36:00.267Z,81.60
2023-01-30T10:38:41.603Z,81.40
2023-01-30T10:41:29.200Z,81.50
2023-01-30T10:44:14.431Z,81.00
2023-01-30T10:46:53.110Z,80.70
2023-01-30T10:49:38.449Z,80.10
2023-01-30T10:52:26.970Z,80.00
2023-01-30T10:55:28.151Z,79.50
2023-01-30T10:58:18.041Z,79.20
2023-01-30T11:00:49.717Z,78.60
2023-01-30T11:03:25.457Z,78.10
2023-01-30T11:05:54.312Z,76.80
2023-01-30T11:08:28.892Z,76.60
2023-01-30T11:10:56.001Z,75.70
2023-01-30T11:13:26.622Z,75.60
2023-01-30T11:15:55.630Z,75.30
2023-01-30T11:19:14.102Z,75.00
2023-01-30T11:21:23.428Z,74.80
2023-01-30T11:23:51.973Z,74.90
2023-01-30T11:26:26.105Z,75.20
2023-01-30T11:28:56.316Z,75.10
2023-01-30T11:31:41.059Z,75.00
2023-01-30T11:34:21.052Z,74.90
2023-01-30T11:36:47.981Z,74.00
2023-01-30T11:39:15.870Z,73.80
2023-01-30T11:41:43.763Z,73.20
2023-01-30T11:44:10.911Z,72.50
2023-01-30T11:46:39.211Z,72.10
2023-01-30T11:49:44.954Z,71.90
2023-01-30T11:52:03.776Z,71.40
2023-01-30T11:54:44.427Z,72.30
2023-01-30T11:57:13.399Z,71.30
2023-01-30T11:59:57.256Z,71.60
2023-01-30T12:02:31.762Z,71.50
2023-01-30T12:05:04.561Z,72.20
2023-01-30T12:07:33.413Z,72.40
2023-01-30T12:10:00.235Z,72.50
2023-01-30T12:12:37.702Z,72.90
2023-01-30T12:15:16.677Z,72.20
2023-01-30T12:18:01.707Z,72.00
2023-01-30T12:20:46.319Z,72.00
2023-01-30T12:23:17.150Z,72.10
2023-01-30T12:25:45.506Z,72.20
2023-01-30T12:28:18.422Z,72.70
2023-01-30T12:30:51.500Z,72.60
2023-01-30T12:33:19.465Z,72.10
2023-01-30T12:36:02.243Z,72.20
2023-01-30T12:38:38.425Z,71.70
2023-01-30T12:41:08.006Z,72.00
2023-01-30T12:44:25.420Z,71.50
2023-01-30T12:47:22.127Z,71.10
2023-01-30T12:50:13.097Z,71.10
2023-01-30T12:52:48.982Z,71.00
2023-01-30T12:55:57.605Z,71.30
2023-01-30T12:58:45.965Z,71.00
2023-01-30T13:01:43.303Z,71.10
2023-01-30T13:04:19.665Z,70.90
2023-01-30T13:06:56.532Z,71.10
2023-01-30T13:09:35.315Z,70.70
2023-01-30T13:12:14.274Z,70.40
2023-01-30T13:14:52.903Z,70.00
2023-01-30T13:17:34.259Z,70.00
2023-01-30T13:20:21.409Z,69.40
2023-01-30T13:23:20.883Z,68.30
2023-01-30T13:26:16.675Z,67.10
2023-01-30T13:28:56.141Z,65.90
2023-01-30T13:31:28.215Z,64.60
2023-01-30T13:34:10.688Z,64.40
2023-01-30T13:36:40.459Z,63.30
2023-01-30T13:41:47.253Z,62.00
2023-01-30T13:44:20.052Z,61.30
2023-01-30T13:46:47.412Z,60.80
2023-01-30T13:49:56.134Z,60.70
2023-01-30T13:52:31.891Z,60.50
2023-01-30T13:55:25.752Z,60.70
2023-01-30T13:57:56.636Z,60.40
2023-01-30T14:00:34.037Z,61.00
2023-01-30T14:03:03.684Z,60.90
2023-01-30T14:05:52.701Z,61.40
2023-01-30T14:08:25.469Z,61.40
2023-01-30T14:10:52.282Z,61.80
2023-01-30T14:13:19.073Z,61.90
2023-01-30T14:16:12.409Z,62.10
2023-01-30T14:18:39.185Z,62.20
2023-01-30T14:21:24.531Z,62.90
2023-01-30T14:24:00.787Z,62.50
2023-01-30T14:26:53.106Z,62.20
2023-01-30T14:29:38.121Z,62.30
2023-01-30T14:32:14.147Z,62.40
2023-01-30T14:34:48.324Z,62.40
2023-01-30T14:37:39.303Z,62.20
2023-01-30T14:40:31.080Z,61.70
2023-01-30T14:43:13.168Z,61.30
2023-01-30T14:45:45.352Z,61.00
2023-01-30T14:48:41.632Z,61.10
2023-01-30T14:51:39.983Z,61.40
2023-01-30T14:54:13.247Z,61.90
2023-01-30T14:56:41.966Z,62.30
2023-01-30T14:59:17.427Z,63.00
2023-01-30T15:01:56.478Z,62.90
2023-01-30T15:04:23.324Z,62.70
2023-01-30T15:06:50.221Z,63.20
2023-01-30T15:09:21.609Z,63.30
2023-01-30T15:11:58.905Z,63.20
2023-01-30T15:14:30.968Z,62.80
2023-01-30T15:17:22.626Z,62.40
2023-01-30T15:20:15.756Z,62.40
2023-01-30T15:22:55.108Z,63.00
2023-01-30T15:25:30.727Z,62.80
2023-01-30T15:28:17.414Z,63.00
2023-01-30T15:31:11.553Z,63.00
2023-01-30T15:33:46.341Z,62.60
2023-01-30T15:36:25.897Z,63.30
2023-01-30T15:39:03.543Z,63.80
2023-01-30T15:41:32.049Z,64.30
2023-01-30T15:43:58.834Z,64.70
2023-01-30T15:47:03.265Z,65.10
2023-01-30T15:49:52.171Z,65.40
2023-01-30T15:52:19.927Z,66.00
2023-01-30T15:54:51.639Z,66.40
2023-01-30T15:57:25.474Z,66.50
2023-01-30T15:59:53.512Z,66.50
2023-01-30T16:02:30.853Z,66.60
2023-01-30T16:05:18.118Z,66.60
2023-01-30T16:07:45.750Z,66.80
2023-01-30T16:10:16.452Z,67.10
2023-01-30T16:12:44.181Z,67.10
2023-01-30T16:15:19.917Z,67.30
2023-01-30T16:17:54.141Z,67.30
2023-01-30T16:20:21.114Z,67.70
2023-01-30T16:22:48.091Z,67.90
2023-01-30T16:25:24.605Z,68.20
2023-01-30T16:27:53.027Z,68.60
2023-01-30T16:30:25.038Z,68.80
2023-01-30T16:32:53.071Z,69.10
2023-01-30T16:35:27.482Z,69.30
2023-01-30T16:37:56.248Z,69.60
2023-01-30T16:40:24.864Z,69.80
2023-01-30T16:43:19.344Z,70.10
2023-01-30T16:45:55.460Z,70.40
2023-01-30T16:48:34.179Z,70.50
2023-01-30T16:51:05.102Z,70.80
2023-01-30T16:53:32.328Z,70.90
2023-01-30T16:56:03.664Z,71.20
2023-01-30T16:58:34.694Z,71.40
2023-01-30T17:01:03.280Z,71.50
2023-01-30T17:03:33.664Z,71.80
2023-01-30T17:06:01.714Z,71.80
2023-01-30T17:08:31.576Z,72.00
2023-01-30T17:10:59.271Z,72.30
2023-01-30T17:13:41.571Z,72.50
2023-01-30T17:16:27.744Z,72.60
2023-01-30T17:18:56.098Z,72.90
2023-01-30T17:21:24.544Z,73.00
2023-01-30T17:24:04.887Z,73.20
2023-01-30T17:26:31.973Z,73.40
2023-01-30T17:28:58.782Z,73.60
2023-01-30T17:31:25.744Z,73.70
2023-01-30T17:33:52.596Z,73.90
2023-01-30T17:36:27.397Z,74.00
2023-01-30T17:38:54.366Z,74.20
2023-01-30T17:41:23.437Z,74.30
2023-01-30T17:43:51.009Z,74.40
2023-01-30T17:46:18.076Z,74.50
2023-01-30T17:48:45.017Z,74.80
2023-01-30T17:51:14.291Z,74.90
2023-01-30T17:53:41.781Z,75.10
2023-01-30T17:56:15.714Z,75.20
2023-01-30T17:58:42.518Z,75.40
2023-01-30T18:01:09.429Z,75.30
2023-01-30T18:03:36.267Z,76.00
2023-01-30T18:06:03.053Z,75.50
2023-01-30T18:08:29.820Z,75.60
2023-01-30T18:10:56.637Z,75.70
2023-01-30T18:13:23.494Z,75.90
2023-01-30T18:15:50.430Z,76.20
2023-01-30T18:18:17.326Z,76.10
2023-01-30T18:20:44.106Z,76.20
2023-01-30T18:23:10.957Z,76.30
2023-01-30T18:25:37.709Z,76.50
2023-01-30T18:28:06.754Z,77.20
2023-01-30T18:30:33.607Z,76.80
2023-01-30T18:33:00.387Z,76.90
2023-01-30T18:35:27.496Z,76.90
2023-01-30T18:37:55.774Z,77.00
2023-01-30T18:40:24.258Z,77.10
2023-01-30T18:42:51.109Z,77.80
2023-01-30T18:45:17.941Z,77.50
2023-01-30T18:47:44.800Z,77.60
2023-01-30T18:50:11.908Z,77.90
2023-01-30T18:52:38.724Z,78.00
2023-01-30T18:55:05.915Z,78.90
2023-01-30T18:57:32.721Z,78.60
2023-01-30T18:59:59.514Z,79.10
2023-01-30T19:02:26.412Z,79.60
2023-01-30T19:04:53.163Z,79.50
2023-01-30T19:07:19.968Z,79.50
2023-01-30T19:09:46.920Z,79.60
2023-01-30T19:12:32.461Z,79.70
2023-01-30T19:14:59.347Z,79.70
2023-01-30T19:17:26.159Z,79.70
2023-01-30T19:19:52.942Z,79.70
2023-01-30T19:22:19.721Z,79.60
2023-01-30T19:24:46.587Z,79.70
2023-01-30T19:27:13.954Z,79.60
2023-01-30T19:29:41.640Z,79.60
2023-01-30T19:32:09.431Z,79.40
2023-01-30T19:34:37.144Z,79.40
2023-01-30T19:37:04.032Z,79.30
2023-01-30T19:39:30.879Z,79.40
2023-01-30T19:41:57.636Z,79.50
2023-01-30T19:44:24.469Z,79.50
2023-01-30T19:46:51.312Z,79.70
2023-01-30T19:49:18.102Z,79.70
2023-01-30T19:51:44.881Z,80.20
2023-01-30T19:54:11.928Z,79.90
2023-01-30T19:56:40.880Z,80.60
2023-01-30T19:59:08.111Z,80.10
2023-01-30T20:01:37.600Z,80.30
2023-01-30T20:04:05.267Z,80.30
2023-01-30T20:06:32.881Z,80.40
2023-01-30T20:09:05.287Z,80.50
2023-01-30T20:11:33.426Z,80.60
2023-01-30T20:14:01.288Z,81.00
2023-01-30T20:16:29.358Z,81.30
2023-01-30T20:19:06.642Z,82.00
2023-01-30T20:21:33.564Z,81.10
2023-01-30T20:24:01.006Z,80.80
2023-01-30T20:26:29.826Z,80.70
2023-01-30T20:28:57.041Z,80.70
2023-01-30T20:31:25.339Z,80.60
2023-01-30T20:33:53.036Z,80.70
2023-01-30T20:36:20.163Z,80.70
2023-01-30T20:38:47.876Z,80.80
2023-01-30T20:41:15.923Z,80.80
2023-01-30T20:43:47.268Z,81.00
2023-01-30T20:46:16.183Z,81.00
2023-01-30T20:48:43.104Z,81.00
2023-01-30T20:51:14.559Z,81.10
2023-01-30T20:53:49.694Z,81.20
2023-01-30T20:56:16.670Z,81.30
2023-01-30T20:58:43.569Z,81.30
2023-01-30T21:01:18.448Z,81.30
2023-01-30T21:03:46.160Z,81.40
2023-01-30T21:06:14.162Z,81.50
2023-01-30T21:09:01.197Z,81.70
2023-01-30T21:11:28.054Z,81.90
2023-01-30T21:13:54.862Z,82.20
2023-01-30T21:16:23.591Z,82.40
2023-01-30T21:18:53.569Z,82.60
2023-01-30T21:21:34.843Z,82.70
2023-01-30T21:24:03.629Z,82.80
2023-01-30T21:26:31.570Z,82.90
2023-01-30T21:29:02.475Z,82.90
2023-01-30T21:31:30.204Z,83.00
2023-01-30T21:33:57.554Z,83.10
2023-01-30T21:36:24.624Z,83.20
2023-01-30T21:39:10.052Z,83.50
2023-01-30T21:41:57.542Z,83.80
2023-01-30T21:44:25.907Z,83.90
2023-01-30T21:46:54.295Z,84.00
2023-01-30T21:49:21.200Z,84.00
2023-01-30T21:51:48.638Z,84.00
2023-01-30T21:54:17.011Z,84.00
2023-01-30T21:56:44.247Z,84.10
2023-01-30T21:59:11.188Z,84.20
2023-01-30T22:01:38.825Z,84.40
2023-01-30T22:04:08.640Z,85.10
2023-01-30T22:06:36.458Z,84.70
2023-01-30T22:09:03.494Z,84.90
2023-01-30T22:11:30.392Z,84.90
2023-01-30T22:13:57.312Z,85.10
2023-01-30T22:16:26.041Z,85.20
2023-01-30T22:18:58.719Z,85.20
2023-01-30T22:21:27.543Z,85.30
2023-01-30T22:23:54.975Z,85.40
2023-01-30T22:26:23.084Z,86.10
2023-01-30T22:28:54.344Z,85.70
2023-01-30T22:31:21.441Z,85.70
2023-01-30T22:33:53.761Z,85.70
2023-01-30T22:36:22.406Z,85.80
2023-01-30T22:38:49.439Z,85.70
2023-01-30T22:41:18.443Z,85.60
2023-01-30T22:43:53.276Z,85.70
2023-01-30T22:46:20.119Z,85.70
2023-01-30T22:48:47.010Z,86.00
2023-01-30T22:51:18.861Z,85.30
2023-01-30T22:53:50.148Z,85.00
2023-01-30T22:56:19.474Z,85.00
2023-01-30T22:58:46.490Z,85.50
2023-01-30T23:01:20.545Z,85.00
2023-01-30T23:03:48.508Z,85.10
2023-01-30T23:06:16.420Z,85.00
2023-01-30T23:08:44.702Z,84.90
2023-01-30T23:11:12.689Z,84.90
2023-01-30T23:13:41.386Z,85.00
2023-01-30T23:16:08.265Z,85.00
2023-01-30T23:18:53.999Z,85.10
2023-01-30T23:21:37.124Z,85.70
2023-01-30T23:24:14.382Z,85.20
2023-01-30T23:26:43.217Z,85.10
2023-01-30T23:29:13.088Z,84.90
2023-01-30T23:31:40.392Z,84.90
2023-01-30T23:34:08.310Z,84.80
2023-01-30T23:36:35.375Z,84.80
2023-01-30T23:39:02.450Z,84.90
2023-01-30T23:41:30.644Z,84.80
2023-01-30T23:43:57.807Z,84.90
2023-01-30T23:46:29.671Z,84.90
2023-01-30T23:48:57.928Z,85.00
2023-01-30T23:51:26.058Z,85.00
2023-01-30T23:53:53.354Z,85.00
2023-01-30T23:56:20.904Z,85.10
2023-01-30T23:58:48.988Z,85.20
